createdAt,value
2022-08-11T00:01:59.050Z,102315.88
2022-08-11T00:04:34.212Z,102313.22
2022-08-11T00:07:03.528Z,102310.59
2022-08-11T00:09:38.989Z,102308.84
2022-08-11T00:12:14.236Z,102310.66
2022-08-11T00:14:41.518Z,102311.59
2022-08-11T00:17:13.039Z,102311.69
2022-08-11T00:20:12.253Z,102316.16
2022-08-11T00:22:30.378Z,102313.72
2022-08-11T00:25:01.736Z,102315.53
2022-08-11T00:27:36.606Z,102312.88
2022-08-11T00:30:08.630Z,102314.75
2022-08-11T00:32:38.343Z,102311.25
2022-08-11T00:35:55.088Z,102317.66
2022-08-11T00:37:56.571Z,102324.06
2022-08-11T00:40:44.165Z,102306.22
2022-08-11T00:43:22.161Z,102316.97
2022-08-11T00:46:16.281Z,102321.53
2022-08-11T00:49:04.400Z,102325.22
2022-08-11T00:52:03.753Z,102320.94
2022-08-11T00:55:03.310Z,102320.16
2022-08-11T00:57:41.816Z,102322.06
2022-08-11T01:00:11.228Z,102322.09
2022-08-11T01:02:56.359Z,102322.06
2022-08-11T01:06:00.139Z,102320.28
2022-08-11T01:08:58.910Z,102330.13
2022-08-11T01:11:56.054Z,102323.91
2022-08-11T01:15:13.067Z,102316.88
2022-08-11T01:18:28.819Z,102318.81
2022-08-11T01:21:14.064Z,102322.50
2022-08-11T01:24:17.147Z,102314.59
2022-08-11T01:26:43.483Z,102304.88
2022-08-11T01:29:54.141Z,102306.69
2022-08-11T01:33:08.026Z,102311.25
2022-08-11T01:36:04.744Z,102311.25
2022-08-11T01:39:18.779Z,102311.25
2022-08-11T01:42:24.232Z,102314.00
2022-08-11T01:45:02.805Z,102315.84
2022-08-11T01:47:54.316Z,102306.06
2022-08-11T01:50:40.424Z,102308.81
2022-08-11T01:53:27.380Z,102303.66
2022-08-11T01:56:18.737Z,102309.06
2022-08-11T01:59:08.785Z,102310.84
2022-08-11T02:01:50.412Z,102309.13
2022-08-11T02:04:25.874Z,102313.50
2022-08-11T02:07:03.112Z,102307.34
2022-08-11T02:10:23.320Z,102300.25
2022-08-11T02:12:58.282Z,102304.75
2022-08-11T02:15:42.510Z,102301.22
2022-08-11T02:18:52.587Z,102308.34
2022-08-11T02:21:47.714Z,102314.63
2022-08-11T02:24:37.135Z,102308.41
2022-08-11T02:27:13.821Z,102307.53
2022-08-11T02:30:04.997Z,102303.16
2022-08-11T02:33:25.510Z,102298.84
2022-08-11T02:36:19.673Z,102302.56
2022-08-11T02:39:07.840Z,102301.69
2022-08-11T02:42:08.872Z,102297.22
2022-08-11T02:45:09.933Z,102303.50
2022-08-11T02:48:06.905Z,102296.34
2022-08-11T02:50:42.160Z,102288.38
2022-08-11T02:53:16.789Z,102295.53
2022-08-11T02:56:08.680Z,102293.81
2022-08-11T02:58:35.465Z,102284.06
2022-08-11T03:01:28.322Z,102288.56
2022-08-11T03:04:10.889Z,102288.56
2022-08-11T03:07:28.125Z,102292.13
2022-08-11T03:10:06.949Z,102293.97
2022-08-11T03:13:02.927Z,102289.56
2022-08-11T03:16:08.861Z,102280.72
2022-08-11T03:19:13.929Z,102283.44
2022-08-11T03:22:07.254Z,102277.22
2022-08-11T03:24:46.373Z,102279.94
2022-08-11T03:27:39.428Z,102292.44
2022-08-11T03:30:08.052Z,102282.63
2022-08-11T03:33:12.414Z,102280.00
2022-08-11T03:36:00.383Z,102284.47
2022-08-11T03:38:49.091Z,102276.50
2022-08-11T03:42:01.788Z,102277.47
2022-08-11T03:44:46.528Z,102281.94
2022-08-11T03:47:23.819Z,102278.41
2022-08-11T03:50:07.340Z,102275.78
2022-08-11T03:52:36.964Z,102283.81
2022-08-11T03:55:28.379Z,102281.16
2022-08-11T03:58:03.783Z,102274.16
2022-08-11T04:00:55.033Z,102277.75
2022-08-11T04:04:03.176Z,102275.13
2022-08-11T04:07:07.016Z,102276.06
2022-08-11T04:09:36.193Z,102274.31
2022-08-11T04:12:47.131Z,102279.72
2022-08-11T04:16:11.870Z,102276.16
2022-08-11T04:18:58.342Z,102269.97
2022-08-11T04:22:15.227Z,102267.31
2022-08-11T04:25:23.049Z,102271.81
2022-08-11T04:28:28.867Z,102265.63
2022-08-11T04:31:08.472Z,102268.31
2022-08-11T04:33:56.451Z,102269.22
2022-08-11T04:36:43.501Z,102271.06
2022-08-11T04:39:28.003Z,102259.47
2022-08-11T04:42:31.873Z,102266.56
2022-08-11T04:45:34.246Z,102263.00
2022-08-11T04:48:37.906Z,102265.63
2022-08-11T04:51:58.042Z,102259.38
2022-08-11T04:55:20.590Z,102258.47
2022-08-11T04:58:20.958Z,102267.41
2022-08-11T05:01:41.820Z,102278.94
2022-08-11T05:04:54.871Z,102273.59
2022-08-11T05:07:49.510Z,102270.06
2022-08-11T05:10:41.408Z,102268.22
2022-08-11T05:13:30.812Z,102264.59
2022-08-11T05:16:28.938Z,102263.69
2022-08-11T05:19:16.343Z,102267.22
2022-08-11T05:22:11.717Z,102256.47
2022-08-11T05:25:04.667Z,102266.19
2022-08-11T05:28:08.671Z,102265.22
2022-08-11T05:30:56.932Z,102274.91
2022-08-11T05:34:06.516Z,102272.09
2022-08-11T05:36:48.018Z,102275.47
2022-08-11T05:39:43.054Z,102279.75
2022-08-11T05:42:29.937Z,102282.97
2022-08-11T05:45:23.730Z,102282.38
2022-08-11T05:48:10.104Z,102275.56
2022-08-11T05:50:56.073Z,102274.94
2022-08-11T05:53:45.731Z,102285.75
2022-08-11T05:56:19.717Z,102277.47
2022-08-11T05:58:54.732Z,102274.34
2022-08-11T06:01:26.799Z,102282.69
2022-08-11T06:04:14.124Z,102272.53
2022-08-11T06:06:52.551Z,102281.81
2022-08-11T06:09:36.496Z,102276.03
2022-08-11T06:12:24.722Z,102280.94
2022-08-11T06:14:55.187Z,102279.72
2022-08-11T06:17:38.491Z,102286.00
2022-08-11T06:20:14.674Z,102279.38
2022-08-11T06:22:48.523Z,102288.00
2022-08-11T06:25:17.939Z,102284.41
2022-08-11T06:27:45.983Z,102280.75
2022-08-11T06:30:17.048Z,102284.38
2022-08-11T06:32:44.815Z,102284.00
2022-08-11T06:35:25.409Z,102285.53
2022-08-11T06:38:30.303Z,102277.34
2022-08-11T06:41:29.217Z,102284.50
2022-08-11T06:44:13.701Z,102279.16
2022-08-11T06:46:48.021Z,102281.28
2022-08-11T06:49:35.047Z,102275.97
2022-08-11T06:52:04.847Z,102276.41
2022-08-11T06:54:38.541Z,102274.84
2022-08-11T06:57:31.905Z,102271.44
2022-08-11T07:00:36.356Z,102277.75
2022-08-11T07:03:09.199Z,102276.38
2022-08-11T07:05:55.710Z,102272.84
2022-08-11T07:09:05.881Z,102276.19
2022-08-11T07:12:19.678Z,102273.41
2022-08-11T07:15:10.826Z,102272.00
2022-08-11T07:18:10.399Z,102270.06
2022-08-11T07:21:01.935Z,102274.56
2022-08-11T07:23:52.947Z,102271.41
2022-08-11T07:26:42.408Z,102269.91
2022-08-11T07:29:14.707Z,102266.66
2022-08-11T07:31:51.678Z,102265.78
2022-08-11T07:34:38.673Z,102271.22
2022-08-11T07:37:13.584Z,102268.00
2022-08-11T07:39:44.249Z,102274.44
2022-08-11T07:42:13.870Z,102272.69
2022-08-11T07:45:05.041Z,102267.84
2022-08-11T07:47:52.212Z,102269.91
2022-08-11T07:50:37.583Z,102263.22
2022-08-11T07:53:04.567Z,102271.19
2022-08-11T07:55:51.525Z,102269.13
2022-08-11T07:58:52.173Z,102270.19
2022-08-11T08:01:41.785Z,102267.28
2022-08-11T08:04:32.572Z,102276.22
2022-08-11T08:07:19.893Z,102269.03
2022-08-11T08:10:07.379Z,102266.31
2022-08-11T08:12:54.289Z,102268.84
2022-08-11T08:15:41.227Z,102267.28
2022-08-11T08:18:26.642Z,102278.66
2022-08-11T08:20:56.569Z,102271.84
2022-08-11T08:23:35.705Z,102276.78
2022-08-11T08:26:05.232Z,102283.59
2022-08-11T08:28:33.764Z,102278.50
2022-08-11T08:31:00.518Z,102270.81
2022-08-11T08:33:30.268Z,102274.84
2022-08-11T08:36:17.005Z,102275.00
2022-08-11T08:38:53.009Z,102273.94
2022-08-11T08:41:28.938Z,102271.25
2022-08-11T08:44:21.020Z,102269.72
2022-08-11T08:46:54.303Z,102273.25
2022-08-11T08:49:27.756Z,102273.16
2022-08-11T08:52:20.273Z,102264.06
2022-08-11T08:54:48.433Z,102265.50
2022-08-11T08:57:18.634Z,102265.28
2022-08-11T08:59:48.932Z,102262.84
2022-08-11T09:02:19.801Z,102256.63
2022-08-11T09:05:02.682Z,102260.81
2022-08-11T09:07:38.788Z,102266.78
2022-08-11T09:10:08.439Z,102252.41
2022-08-11T09:12:38.838Z,102258.75
2022-08-11T09:15:14.001Z,102251.34
2022-08-11T09:17:53.344Z,102251.78
2022-08-11T09:20:23.894Z,102254.84
2022-08-11T09:24:07.754Z,102245.22
2022-08-11T09:26:33.296Z,102247.63
2022-08-11T09:29:01.663Z,102251.59
2022-08-11T09:31:40.129Z,102240.81
2022-08-11T09:34:08.598Z,102236.66
2022-08-11T09:36:54.218Z,102243.00
2022-08-11T09:39:39.634Z,102236.31
2022-08-11T09:42:11.427Z,102231.94
2022-08-11T09:44:50.266Z,102229.31
2022-08-11T09:47:29.576Z,102224.06
2022-08-11T09:50:01.054Z,102234.97
2022-08-11T09:52:35.750Z,102232.31
2022-08-11T09:55:14.715Z,102222.16
2022-08-11T09:58:04.393Z,102232.66
2022-08-11T10:00:33.213Z,102240.31
2022-08-11T10:03:02.660Z,102229.84
2022-08-11T10:05:48.596Z,102231.34
2022-08-11T10:08:23.454Z,102230.25
2022-08-11T10:10:59.280Z,102222.44
2022-08-11T10:14:31.973Z,102222.44
2022-08-11T10:16:42.154Z,102226.56
2022-08-11T10:19:21.160Z,102215.72
2022-08-11T10:22:09.825Z,102223.09
2022-08-11T10:24:55.620Z,102215.81
2022-08-11T10:27:27.232Z,102210.69
2022-08-11T10:30:16.596Z,102211.44
2022-08-11T10:33:02.824Z,102213.69
2022-08-11T10:35:34.900Z,102215.19
2022-08-11T10:38:16.055Z,102207.41
2022-08-11T10:41:07.674Z,102200.06
2022-08-11T10:44:01.481Z,102212.50
2022-08-11T10:46:46.932Z,102210.00
2022-08-11T10:49:19.303Z,102197.91
2022-08-11T10:52:08.672Z,102193.47
2022-08-11T10:55:11.403Z,102200.19
2022-08-11T10:58:04.784Z,102187.75
2022-08-11T11:00:41.293Z,102183.94
2022-08-11T11:03:23.230Z,102181.72
2022-08-11T11:06:28.682Z,102175.56
2022-08-11T11:08:55.568Z,102176.19
2022-08-11T11:11:48.768Z,102174.81
2022-08-11T11:14:46.176Z,102172.06
2022-08-11T11:17:36.791Z,102162.47
2022-08-11T11:20:06.810Z,102164.44
2022-08-11T11:22:39.821Z,102166.31
2022-08-11T11:25:32.784Z,102157.28
2022-08-11T11:28:34.665Z,102164.66
2022-08-11T11:31:07.876Z,102171.22
2022-08-11T11:34:18.211Z,102164.28
2022-08-11T11:36:51.290Z,102159.44
2022-08-11T11:39:25.571Z,102160.28
2022-08-11T11:41:55.903Z,102155.31
2022-08-11T11:44:23.947Z,102150.34
2022-08-11T11:46:51.618Z,102147.97
2022-08-11T11:51:57.440Z,102158.16
2022-08-11T11:54:28.996Z,102151.06
2022-08-11T11:57:18.921Z,102155.31
2022-08-11T12:00:10.303Z,102145.28
2022-08-11T12:02:37.834Z,102146.91
2022-08-11T12:05:06.241Z,102144.44
2022-08-11T12:08:04.851Z,102137.47
2022-08-11T12:10:49.081Z,102134.72
2022-08-11T12:13:37.754Z,102130.25
2022-08-11T12:16:33.465Z,102132.34
2022-08-11T12:19:00.493Z,102132.88
2022-08-11T12:21:31.441Z,102128.34
2022-08-11T12:24:19.536Z,102116.75
2022-08-11T12:26:54.294Z,102125.47
2022-08-11T12:29:36.648Z,102110.13
2022-08-11T12:32:09.316Z,102109.25
2022-08-11T12:34:38.297Z,102110.38
2022-08-11T12:37:11.027Z,102110.38
2022-08-11T12:40:17.006Z,102101.47
2022-08-11T12:43:21.844Z,102104.44
2022-08-11T12:45:58.298Z,102102.59
2022-08-11T12:49:06.516Z,102088.50
2022-08-11T12:52:01.482Z,102097.44
2022-08-11T12:54:52.375Z,102096.06
2022-08-11T12:57:51.695Z,102088.75
2022-08-11T13:00:38.094Z,102084.00
2022-08-11T13:03:27.432Z,102086.00
2022-08-11T13:06:00.015Z,102073.25
2022-08-11T13:08:29.275Z,102077.94
2022-08-11T13:11:17.339Z,102077.81
2022-08-11T13:13:55.042Z,102073.94
2022-08-11T13:16:53.784Z,102071.03
2022-08-11T13:19:21.883Z,102072.06
2022-08-11T13:21:50.863Z,102059.09
2022-08-11T13:24:19.003Z,102063.94
2022-08-11T13:26:49.630Z,102058.69
2022-08-11T13:29:25.081Z,102067.84
2022-08-11T13:31:53.950Z,102060.47
2022-08-11T13:34:22.980Z,102053.66
2022-08-11T13:36:52.159Z,102051.19
2022-08-11T13:39:20.651Z,102054.94
2022-08-11T13:41:48.629Z,102053.59
2022-08-11T13:44:23.311Z,102053.06
2022-08-11T13:46:52.831Z,102067.63
2022-08-11T13:49:21.905Z,102043.81
2022-08-11T13:51:49.288Z,102046.28
2022-08-11T13:54:25.454Z,102048.56
2022-08-11T13:56:59.789Z,102054.03
2022-08-11T13:59:30.294Z,102047.22
2022-08-11T14:02:21.671Z,102043.00
2022-08-11T14:05:02.911Z,102042.56
2022-08-11T14:07:37.403Z,102039.06
2022-08-11T14:10:06.925Z,102029.38
2022-08-11T14:12:54.105Z,102033.75
2022-08-11T14:15:27.675Z,102025.03
2022-08-11T14:18:05.032Z,102029.25
2022-08-11T14:20:55.510Z,102024.28
2022-08-11T14:23:32.792Z,102022.78
2022-08-11T14:26:19.000Z,102018.06
2022-08-11T14:28:47.060Z,102018.09
2022-08-11T14:31:17.336Z,102014.47
2022-08-11T14:34:00.045Z,102006.00
2022-08-11T14:36:37.499Z,102010.97
2022-08-11T14:39:26.444Z,102008.88
2022-08-11T14:42:14.931Z,102010.00
2022-08-11T14:45:03.679Z,102005.00
2022-08-11T14:47:33.559Z,102000.03
2022-08-11T14:50:11.746Z,101994.81
2022-08-11T14:52:43.806Z,102000.38
2022-08-11T14:55:30.453Z,101990.88
2022-08-11T14:57:57.504Z,101997.53
2022-08-11T15:00:25.757Z,101996.63
2022-08-11T15:03:15.015Z,101993.44
2022-08-11T15:05:57.547Z,101990.19
2022-08-11T15:08:51.857Z,101992.03
2022-08-11T15:11:40.223Z,101986.38
2022-08-11T15:14:08.722Z,101977.28
2022-08-11T15:16:56.552Z,101970.22
2022-08-11T15:19:24.096Z,101976.53
2022-08-11T15:22:29.398Z,101975.53
2022-08-11T15:24:58.686Z,101978.63
2022-08-11T15:27:46.467Z,101969.88
2022-08-11T15:30:32.833Z,101976.31
2022-08-11T15:33:40.481Z,101976.78
2022-08-11T15:36:28.113Z,101974.09
2022-08-11T15:38:59.618Z,101972.88
2022-08-11T15:41:58.569Z,101961.22
2022-08-11T15:45:02.304Z,101966.03
2022-08-11T15:47:37.329Z,101963.31
2022-08-11T15:50:12.721Z,101961.56
2022-08-11T15:52:46.341Z,101960.47
2022-08-11T15:55:14.437Z,101955.56
2022-08-11T15:58:00.311Z,101955.22
2022-08-11T16:00:48.667Z,101949.03
2022-08-11T16:04:07.840Z,101950.69
2022-08-11T16:06:40.491Z,101946.31
2022-08-11T16:09:19.848Z,101948.31
2022-08-11T16:11:48.378Z,101940.34
2022-08-11T16:14:35.973Z,101952.88
2022-08-11T16:17:04.518Z,101950.03
2022-08-11T16:19:36.916Z,101943.50
2022-08-11T16:22:09.306Z,101943.88
2022-08-11T16:27:03.581Z,101943.22
2022-08-11T16:27:34.126Z,101937.00
2022-08-11T16:30:02.575Z,101932.53
2022-08-11T16:32:31.240Z,101925.91
2022-08-11T16:35:21.262Z,101924.66
2022-08-11T16:38:07.509Z,101929.25
2022-08-11T16:40:39.068Z,101934.25
2022-08-11T16:43:27.233Z,101935.56
2022-08-11T16:46:14.500Z,101922.50
2022-08-11T16:48:42.745Z,101927.88
2022-08-11T16:51:12.175Z,101926.13
2022-08-11T16:53:59.894Z,101925.38
2022-08-11T16:56:46.058Z,101921.88
2022-08-11T16:59:33.854Z,101926.69
2022-08-11T17:02:09.557Z,101919.94
2022-08-11T17:05:15.689Z,101925.03
2022-08-11T17:08:02.233Z,101924.56
2022-08-11T17:11:03.653Z,101920.03
2022-08-11T17:13:40.127Z,101917.84
2022-08-11T17:16:13.923Z,101917.59
2022-08-11T17:18:43.512Z,101918.69
2022-08-11T17:21:29.940Z,101916.97
2022-08-11T17:24:05.090Z,101919.56
2022-08-11T17:26:59.642Z,101918.78
2022-08-11T17:29:34.119Z,101913.91
2022-08-11T17:32:56.085Z,101921.06
2022-08-11T17:35:31.238Z,101916.88
2022-08-11T17:38:03.940Z,101909.78
2022-08-11T17:40:32.632Z,101916.22
2022-08-11T17:43:19.021Z,101914.59
2022-08-11T17:46:05.426Z,101918.25
2022-08-11T17:48:47.637Z,101923.91
2022-08-11T17:51:37.818Z,101927.84
2022-08-11T17:54:25.688Z,101925.44
2022-08-11T17:57:20.163Z,101922.16
2022-08-11T17:59:52.800Z,101924.72
2022-08-11T18:02:42.304Z,101927.84
2022-08-11T18:05:13.480Z,101930.97
2022-08-11T18:08:01.531Z,101932.09
2022-08-11T18:10:49.179Z,101930.59
2022-08-11T18:13:44.620Z,101932.44
2022-08-11T18:16:30.618Z,101927.97
2022-08-11T18:19:16.123Z,101929.75
2022-08-11T18:22:14.575Z,101926.16
2022-08-11T18:25:07.315Z,101936.31
2022-08-11T18:27:54.256Z,101939.81
2022-08-11T18:30:42.196Z,101931.69
2022-08-11T18:36:41.404Z,101942.50
2022-08-11T18:39:32.897Z,101939.50
2022-08-11T18:42:29.394Z,101945.50
2022-08-11T18:45:19.757Z,101940.66
2022-08-11T18:48:09.207Z,101945.78
2022-08-11T18:51:29.997Z,101943.53
2022-08-11T18:54:07.700Z,101948.50
2022-08-11T18:56:54.025Z,101952.34
2022-08-11T18:59:44.852Z,101957.53
2022-08-11T19:02:31.819Z,101953.81
2022-08-11T19:06:37.303Z,101945.44
2022-08-11T19:08:31.064Z,101959.75
2022-08-11T19:11:16.491Z,101963.09
2022-08-11T19:14:06.799Z,101956.59
2022-08-11T19:16:53.505Z,101968.75
2022-08-11T19:19:40.738Z,101961.31
2022-08-11T19:22:29.148Z,101969.75
2022-08-11T19:25:15.506Z,101977.34
2022-08-11T19:28:02.404Z,101972.28
2022-08-11T19:30:47.691Z,101971.81
2022-08-11T19:33:59.855Z,101969.84
2022-08-11T19:36:41.104Z,101974.81
2022-08-11T19:39:28.646Z,101977.94
2022-08-11T19:42:15.180Z,101982.13
2022-08-11T19:45:03.426Z,101986.19
2022-08-11T19:47:55.878Z,101994.66
2022-08-11T19:50:54.650Z,101987.94
2022-08-11T19:53:40.935Z,101985.47
2022-08-11T19:56:27.323Z,101989.47
2022-08-11T19:59:12.357Z,101988.75
2022-08-11T20:02:12.673Z,102001.72
2022-08-11T20:04:59.208Z,101996.13
2022-08-11T20:07:44.877Z,101992.94
2022-08-11T20:10:33.632Z,102005.13
2022-08-11T20:13:21.883Z,101994.00
2022-08-11T20:16:08.264Z,101994.38
2022-08-11T20:18:54.329Z,102005.50
2022-08-11T20:21:41.381Z,101998.50
2022-08-11T20:24:27.592Z,101988.59
2022-08-11T20:27:18.844Z,101993.19
2022-08-11T20:30:09.639Z,101997.84
2022-08-11T20:32:56.073Z,101997.13
2022-08-11T20:35:42.614Z,101999.03
2022-08-11T20:38:28.708Z,102002.75
2022-08-11T20:41:16.042Z,102008.25
2022-08-11T20:44:08.056Z,102006.78
2022-08-11T20:49:58.625Z,102010.03
2022-08-11T20:52:48.733Z,102019.31
2022-08-11T20:55:46.345Z,102014.03
2022-08-11T21:01:46.299Z,102020.69
2022-08-11T21:04:32.875Z,102024.69
2022-08-11T21:07:28.092Z,102024.03
2022-08-11T21:10:23.290Z,102026.16
2022-08-11T21:13:25.317Z,102016.50
2022-08-11T21:16:25.411Z,102017.63
2022-08-11T21:19:15.391Z,102025.97
2022-08-11T21:22:01.146Z,102019.75
2022-08-11T21:24:50.956Z,102018.78
2022-08-11T21:27:38.361Z,102019.03
2022-08-11T21:30:23.672Z,102016.50
2022-08-11T21:33:09.822Z,102013.16
2022-08-11T21:35:56.153Z,102008.19
2022-08-11T21:38:41.437Z,102011.09
2022-08-11T21:41:28.785Z,102005.97
2022-08-11T21:44:16.613Z,102003.47
2022-08-11T21:47:02.891Z,102009.28
2022-08-11T21:49:49.589Z,102006.78
2022-08-11T21:52:35.379Z,102007.78
2022-08-11T21:55:21.726Z,102009.78
2022-08-11T21:58:07.559Z,102012.84
2022-08-11T22:00:53.427Z,102000.44
2022-08-11T22:03:49.299Z,101999.94
2022-08-11T22:06:35.809Z,101999.13
2022-08-11T22:09:21.670Z,101996.63
2022-08-11T22:12:34.062Z,102004.84
2022-08-11T22:15:13.219Z,101998.97
2022-08-11T22:17:58.268Z,102003.84
2022-08-11T22:20:45.691Z,102001.53
2022-08-11T22:23:36.517Z,102000.06
2022-08-11T22:26:24.353Z,101993.16
2022-08-11T22:29:10.155Z,101993.19
2022-08-11T22:31:56.647Z,102004.03
2022-08-11T22:34:52.635Z,101990.88
2022-08-11T22:37:40.481Z,101999.06
2022-08-11T22:40:27.877Z,102006.38
2022-08-11T22:43:12.852Z,102000.28
2022-08-11T22:45:58.339Z,102003.94
2022-08-11T22:48:47.229Z,102003.09
2022-08-11T22:51:33.664Z,102005.97
2022-08-11T22:54:22.665Z,102008.72
2022-08-11T22:57:08.640Z,102003.47
2022-08-11T22:59:54.928Z,102008.28
2022-08-11T23:02:40.799Z,102003.16
2022-08-11T23:05:27.668Z,102005.16
2022-08-11T23:08:15.999Z,102012.31
2022-08-11T23:11:02.213Z,102002.63
2022-08-11T23:13:50.649Z,102010.78
2022-08-11T23:16:37.447Z,101999.22
2022-08-11T23:20:06.846Z,102007.41
2022-08-11T23:22:38.660Z,102005.91
2022-08-11T23:25:34.869Z,102009.47
2022-08-11T23:28:21.460Z,102010.34
2022-08-11T23:31:09.475Z,102005.94
2022-08-11T23:34:00.872Z,102001.56
2022-08-11T23:36:47.331Z,102007.16
2022-08-11T23:39:34.199Z,102012.72
2022-08-11T23:42:20.400Z,102006.75
2022-08-11T23:45:09.492Z,102006.88
2022-08-11T23:47:57.314Z,102010.66
2022-08-11T23:50:44.290Z,102009.88
2022-08-11T23:53:31.149Z,102003.81
2022-08-11T23:56:21.662Z,101998.66
2022-08-11T23:59:08.949Z,102006.00
